AWQ666 WAMM-WAPP
Flight info
| Callsign | AWQ666 |
|---|---|
| Flight time | 1h 17m |
| Altitude | 33000 |
| Route | WAMM/36 N0455F330 RUMB1J RUMBO W55 BELBA BELB1F WAPP/22 |
| Aircraft | A320/M-SDE2E3FGHIRWXY/LB1 |
Departure
| Time | 2026-04-28 10:44 |
|---|---|
| Airport | Sam Ratulangi International Airport (WAMM) |
Arrival
| Time | 2026-04-28 12:01 |
|---|---|
| Airport | Pattimura International Airport (WAPP) |
| Time | Latitude | Longitude | Altitude | Speed | Heading |
|---|---|---|---|---|---|
| 2026-04-28 09:52 | 1.54351 | 124.92335 | 336 ft | 0 kts | 262° |
| 2026-04-28 10:32 | 1.54351 | 124.92341 | 336 ft | 4 kts | 262° |
| 2026-04-28 10:32 | 1.54355 | 124.92368 | 334 ft | 4 kts | 262° |
| 2026-04-28 10:32 | 1.54359 | 124.92393 | 331 ft | 4 kts | 257° |
| 2026-04-28 10:33 | 1.54370 | 124.92416 | 332 ft | 4 kts | 212° |
| 2026-04-28 10:33 | 1.54387 | 124.92423 | 331 ft | 0 kts | 189° |
| 2026-04-28 10:36 | 1.54381 | 124.92422 | 331 ft | 4 kts | 189° |
| 2026-04-28 10:36 | 1.54344 | 124.92416 | 333 ft | 5 kts | 188° |
| 2026-04-28 10:37 | 1.54300 | 124.92416 | 336 ft | 7 kts | 173° |
| 2026-04-28 10:37 | 1.54258 | 124.92416 | 333 ft | 4 kts | 182° |
| 2026-04-28 10:37 | 1.54216 | 124.92415 | 336 ft | 6 kts | 182° |
| 2026-04-28 10:37 | 1.54180 | 124.92414 | 334 ft | 4 kts | 182° |
| 2026-04-28 10:38 | 1.54138 | 124.92412 | 335 ft | 6 kts | 182° |
| 2026-04-28 10:38 | 1.54091 | 124.92410 | 336 ft | 9 kts | 184° |
| 2026-04-28 10:38 | 1.54010 | 124.92409 | 336 ft | 12 kts | 170° |
| 2026-04-28 10:38 | 1.53940 | 124.92433 | 334 ft | 12 kts | 178° |
| 2026-04-28 10:39 | 1.53852 | 124.92431 | 336 ft | 12 kts | 181° |
| 2026-04-28 10:39 | 1.53776 | 124.92432 | 332 ft | 10 kts | 168° |
| 2026-04-28 10:39 | 1.53744 | 124.92479 | 336 ft | 8 kts | 98° |
| 2026-04-28 10:39 | 1.53743 | 124.92541 | 334 ft | 11 kts | 89° |
| 2026-04-28 10:40 | 1.53773 | 124.92593 | 337 ft | 1 kts | 2° |
| 2026-04-28 10:40 | 1.53774 | 124.92593 | 336 ft | 0 kts | 2° |
| 2026-04-28 10:43 | 1.53924 | 124.92599 | 338 ft | 57 kts | 2° |
| 2026-04-28 10:43 | 1.54555 | 124.92619 | 335 ft | 122 kts | 1° |
| 2026-04-28 10:43 | 1.55585 | 124.92654 | 358 ft | 170 kts | 2° |
| 2026-04-28 10:44 | 1.56787 | 124.92685 | 948 ft | 175 kts | 2° |
| 2026-04-28 10:44 | 1.58031 | 124.92634 | 1485 ft | 189 kts | 351° |
| 2026-04-28 10:44 | 1.59387 | 124.92341 | 1848 ft | 209 kts | 348° |
| 2026-04-28 10:44 | 1.60877 | 124.91960 | 2113 ft | 235 kts | 347° |
| 2026-04-28 10:45 | 1.62545 | 124.91510 | 2466 ft | 260 kts | 346° |
| 2026-04-28 10:45 | 1.64293 | 124.91027 | 3404 ft | 253 kts | 346° |
| 2026-04-28 10:45 | 1.65961 | 124.90569 | 4426 ft | 246 kts | 349° |
| 2026-04-28 10:45 | 1.67649 | 124.90481 | 5155 ft | 244 kts | 12° |
| 2026-04-28 10:46 | 1.68714 | 124.90817 | 5608 ft | 243 kts | 29° |
| 2026-04-28 10:46 | 1.70007 | 124.91877 | 6292 ft | 243 kts | 55° |
| 2026-04-28 10:46 | 1.70693 | 124.93412 | 6924 ft | 245 kts | 81° |
| 2026-04-28 10:46 | 1.70620 | 124.95106 | 7575 ft | 248 kts | 106° |
| 2026-04-28 10:47 | 1.69783 | 124.96617 | 8225 ft | 253 kts | 133° |
| 2026-04-28 10:47 | 1.68339 | 124.97641 | 8870 ft | 259 kts | 150° |
| 2026-04-28 10:47 | 1.66739 | 124.98485 | 9576 ft | 261 kts | 150° |
| 2026-04-28 10:47 | 1.65123 | 124.99333 | 10221 ft | 263 kts | 150° |
| 2026-04-28 10:48 | 1.63489 | 125.00193 | 10800 ft | 267 kts | 150° |
| 2026-04-28 10:48 | 1.61834 | 125.01057 | 11408 ft | 269 kts | 150° |
| 2026-04-28 10:48 | 1.60169 | 125.01926 | 12011 ft | 272 kts | 150° |
| 2026-04-28 10:48 | 1.58491 | 125.02813 | 12589 ft | 274 kts | 149° |
| 2026-04-28 10:49 | 1.56796 | 125.03712 | 13191 ft | 277 kts | 149° |
| 2026-04-28 10:49 | 1.55085 | 125.04620 | 13769 ft | 279 kts | 149° |
| 2026-04-28 10:49 | 1.53361 | 125.05534 | 14261 ft | 282 kts | 149° |
| 2026-04-28 10:49 | 1.51622 | 125.06456 | 14774 ft | 284 kts | 149° |
| 2026-04-28 10:50 | 1.49867 | 125.07384 | 15269 ft | 287 kts | 149° |
| 2026-04-28 10:50 | 1.48754 | 125.07972 | 15580 ft | 289 kts | 149° |
| 2026-04-28 10:50 | 1.47604 | 125.08576 | 15902 ft | 290 kts | 150° |
| 2026-04-28 10:51 | 1.45810 | 125.09512 | 16422 ft | 292 kts | 149° |
| 2026-04-28 10:51 | 1.44007 | 125.10471 | 16920 ft | 295 kts | 150° |
| 2026-04-28 10:51 | 1.42191 | 125.11439 | 17432 ft | 296 kts | 149° |
| 2026-04-28 10:51 | 1.40366 | 125.12411 | 17941 ft | 299 kts | 150° |
| 2026-04-28 10:52 | 1.38491 | 125.13405 | 18250 ft | 305 kts | 150° |
| 2026-04-28 10:52 | 1.36618 | 125.14394 | 18753 ft | 304 kts | 150° |
| 2026-04-28 10:52 | 1.34747 | 125.15385 | 19184 ft | 305 kts | 150° |
| 2026-04-28 10:52 | 1.32867 | 125.16385 | 19599 ft | 307 kts | 150° |
| 2026-04-28 10:53 | 1.30976 | 125.17391 | 20007 ft | 309 kts | 150° |
| 2026-04-28 10:53 | 1.29074 | 125.18400 | 20408 ft | 311 kts | 150° |
| 2026-04-28 10:53 | 1.27152 | 125.19414 | 20791 ft | 314 kts | 150° |
| 2026-04-28 10:53 | 1.25216 | 125.20434 | 21194 ft | 316 kts | 150° |
| 2026-04-28 10:54 | 1.23267 | 125.21461 | 21583 ft | 318 kts | 150° |
| 2026-04-28 10:54 | 1.21299 | 125.22503 | 21970 ft | 321 kts | 150° |
| 2026-04-28 10:54 | 1.19323 | 125.23550 | 22359 ft | 323 kts | 150° |
| 2026-04-28 10:54 | 1.17327 | 125.24607 | 22735 ft | 326 kts | 150° |
| 2026-04-28 10:55 | 1.15343 | 125.25656 | 23105 ft | 328 kts | 150° |
| 2026-04-28 10:55 | 1.13317 | 125.26729 | 23473 ft | 331 kts | 150° |
| 2026-04-28 10:55 | 1.11279 | 125.27809 | 23784 ft | 333 kts | 150° |
| 2026-04-28 10:55 | 1.09226 | 125.28895 | 24101 ft | 335 kts | 150° |
| 2026-04-28 10:56 | 1.07165 | 125.29986 | 24421 ft | 336 kts | 150° |
| 2026-04-28 10:56 | 1.05093 | 125.31085 | 24715 ft | 339 kts | 149° |
| 2026-04-28 10:56 | 1.02975 | 125.32211 | 24822 ft | 349 kts | 150° |
| 2026-04-28 10:56 | 1.00803 | 125.33361 | 24940 ft | 358 kts | 150° |
| 2026-04-28 10:57 | 0.98574 | 125.34540 | 25054 ft | 367 kts | 150° |
| 2026-04-28 10:57 | 0.96291 | 125.35750 | 25161 ft | 376 kts | 150° |
| 2026-04-28 10:57 | 0.93948 | 125.36989 | 25282 ft | 385 kts | 150° |
| 2026-04-28 10:57 | 0.91551 | 125.38255 | 25397 ft | 394 kts | 150° |
| 2026-04-28 10:58 | 0.89096 | 125.39551 | 25513 ft | 403 kts | 150° |
| 2026-04-28 10:58 | 0.86589 | 125.40872 | 25631 ft | 411 kts | 150° |
| 2026-04-28 10:58 | 0.84035 | 125.42222 | 25745 ft | 419 kts | 150° |
| 2026-04-28 10:58 | 0.81433 | 125.43600 | 25862 ft | 426 kts | 150° |
| 2026-04-28 10:59 | 0.78793 | 125.44998 | 25978 ft | 433 kts | 150° |
| 2026-04-28 10:59 | 0.76118 | 125.46416 | 26096 ft | 438 kts | 150° |
| 2026-04-28 10:59 | 0.73405 | 125.47851 | 26218 ft | 444 kts | 150° |
| 2026-04-28 10:59 | 0.70657 | 125.49302 | 26338 ft | 448 kts | 150° |
| 2026-04-28 11:00 | 0.67886 | 125.50764 | 26451 ft | 453 kts | 150° |
| 2026-04-28 11:00 | 0.65087 | 125.52242 | 26580 ft | 457 kts | 150° |
| 2026-04-28 11:00 | 0.62267 | 125.53732 | 26693 ft | 460 kts | 150° |
| 2026-04-28 11:00 | 0.59431 | 125.55234 | 26814 ft | 463 kts | 150° |
| 2026-04-28 11:01 | 0.56575 | 125.56748 | 26934 ft | 466 kts | 150° |
| 2026-04-28 11:01 | 0.56081 | 125.57010 | 26958 ft | 466 kts | 150° |
| 2026-04-28 11:01 | 0.53488 | 125.58382 | 27098 ft | 468 kts | 150° |
| 2026-04-28 11:01 | 0.50644 | 125.59884 | 27256 ft | 469 kts | 150° |
| 2026-04-28 11:02 | 0.47721 | 125.61428 | 27427 ft | 470 kts | 150° |
| 2026-04-28 11:02 | 0.44861 | 125.62939 | 27590 ft | 471 kts | 150° |
| 2026-04-28 11:02 | 0.41962 | 125.64471 | 27744 ft | 472 kts | 150° |
| 2026-04-28 11:02 | 0.39062 | 125.66004 | 27929 ft | 472 kts | 150° |
| 2026-04-28 11:03 | 0.36168 | 125.67534 | 28164 ft | 470 kts | 150° |
| 2026-04-28 11:03 | 0.33272 | 125.69067 | 28403 ft | 469 kts | 150° |
| 2026-04-28 11:03 | 0.30390 | 125.70592 | 28636 ft | 469 kts | 150° |
| 2026-04-28 11:03 | 0.27502 | 125.72119 | 28860 ft | 468 kts | 150° |
| 2026-04-28 11:04 | 0.24627 | 125.73635 | 29087 ft | 467 kts | 150° |
| 2026-04-28 11:04 | 0.21753 | 125.75155 | 29315 ft | 467 kts | 150° |
| 2026-04-28 11:04 | 0.18885 | 125.76672 | 29547 ft | 466 kts | 150° |
| 2026-04-28 11:04 | 0.16023 | 125.78187 | 29785 ft | 465 kts | 150° |
| 2026-04-28 11:05 | 0.13161 | 125.79698 | 30008 ft | 465 kts | 150° |
| 2026-04-28 11:05 | 0.10297 | 125.81194 | 30203 ft | 464 kts | 150° |
| 2026-04-28 11:05 | 0.07442 | 125.82701 | 30406 ft | 464 kts | 150° |
| 2026-04-28 11:05 | 0.04595 | 125.84216 | 30602 ft | 463 kts | 150° |
| 2026-04-28 11:06 | 0.01755 | 125.85727 | 30807 ft | 462 kts | 150° |
| 2026-04-28 11:06 | -0.01084 | 125.87236 | 31016 ft | 462 kts | 150° |
| 2026-04-28 11:06 | -0.03921 | 125.88744 | 31224 ft | 461 kts | 150° |
| 2026-04-28 11:06 | -0.06685 | 125.90353 | 31421 ft | 459 kts | 144° |
| 2026-04-28 11:07 | -0.09285 | 125.92129 | 31617 ft | 459 kts | 144° |
| 2026-04-28 11:07 | -0.11919 | 125.93926 | 31817 ft | 458 kts | 144° |
| 2026-04-28 11:07 | -0.14550 | 125.95720 | 32038 ft | 458 kts | 144° |
| 2026-04-28 11:07 | -0.17211 | 125.97533 | 32253 ft | 457 kts | 144° |
| 2026-04-28 11:08 | -0.19838 | 125.99323 | 32476 ft | 456 kts | 144° |
| 2026-04-28 11:08 | -0.22419 | 126.01083 | 32691 ft | 455 kts | 144° |
| 2026-04-28 11:08 | -0.25036 | 126.02868 | 32857 ft | 455 kts | 144° |
| 2026-04-28 11:09 | -0.30284 | 126.06451 | 32901 ft | 458 kts | 144° |
| 2026-04-28 11:09 | -0.35543 | 126.10039 | 32899 ft | 458 kts | 143° |
| 2026-04-28 11:10 | -0.40808 | 126.13638 | 32903 ft | 458 kts | 143° |
| 2026-04-28 11:10 | -0.46068 | 126.17233 | 32900 ft | 458 kts | 143° |
| 2026-04-28 11:11 | -0.51340 | 126.20833 | 32902 ft | 458 kts | 143° |
| 2026-04-28 11:11 | -0.56603 | 126.24428 | 32902 ft | 458 kts | 144° |
| 2026-04-28 11:12 | -0.61865 | 126.28017 | 32902 ft | 458 kts | 144° |
| 2026-04-28 11:12 | -0.67137 | 126.31602 | 32897 ft | 458 kts | 144° |
| 2026-04-28 11:13 | -0.72401 | 126.35195 | 32901 ft | 459 kts | 143° |
| 2026-04-28 11:13 | -0.77663 | 126.38803 | 32901 ft | 459 kts | 143° |
| 2026-04-28 11:14 | -0.82938 | 126.42404 | 32904 ft | 459 kts | 144° |
| 2026-04-28 11:14 | -0.88214 | 126.46000 | 32899 ft | 459 kts | 144° |
| 2026-04-28 11:15 | -0.93544 | 126.49453 | 32897 ft | 460 kts | 146° |
| 2026-04-28 11:15 | -0.98997 | 126.52818 | 32902 ft | 461 kts | 146° |
| 2026-04-28 11:16 | -1.04458 | 126.56185 | 32907 ft | 461 kts | 146° |
| 2026-04-28 11:16 | -1.09906 | 126.59594 | 32905 ft | 462 kts | 146° |
| 2026-04-28 11:17 | -1.15335 | 126.63020 | 32905 ft | 462 kts | 146° |
| 2026-04-28 11:17 | -1.20762 | 126.66449 | 32903 ft | 461 kts | 146° |
| 2026-04-28 11:18 | -1.26189 | 126.69861 | 32906 ft | 461 kts | 146° |
| 2026-04-28 11:18 | -1.31632 | 126.73280 | 32905 ft | 462 kts | 146° |
| 2026-04-28 11:19 | -1.37071 | 126.76693 | 32908 ft | 462 kts | 146° |
| 2026-04-28 11:19 | -1.42515 | 126.80106 | 32908 ft | 462 kts | 146° |
| 2026-04-28 11:20 | -1.47950 | 126.83520 | 32908 ft | 461 kts | 146° |
| 2026-04-28 11:20 | -1.53376 | 126.86932 | 32905 ft | 461 kts | 146° |
| 2026-04-28 11:21 | -1.58814 | 126.90351 | 32904 ft | 461 kts | 146° |
| 2026-04-28 11:21 | -1.64242 | 126.93768 | 32905 ft | 461 kts | 146° |
| 2026-04-28 11:22 | -1.69672 | 126.97182 | 32903 ft | 461 kts | 146° |
| 2026-04-28 11:22 | -1.75102 | 127.00598 | 32902 ft | 461 kts | 146° |
| 2026-04-28 11:23 | -1.80500 | 127.03996 | 32906 ft | 462 kts | 146° |
| 2026-04-28 11:23 | -1.85933 | 127.07417 | 32908 ft | 462 kts | 146° |
| 2026-04-28 11:24 | -1.91373 | 127.10837 | 32910 ft | 462 kts | 146° |
| 2026-04-28 11:24 | -1.96817 | 127.14250 | 32911 ft | 461 kts | 146° |
| 2026-04-28 11:25 | -2.02258 | 127.17676 | 32911 ft | 461 kts | 146° |
| 2026-04-28 11:25 | -2.07686 | 127.21098 | 32909 ft | 461 kts | 146° |
| 2026-04-28 11:26 | -2.13115 | 127.24512 | 32908 ft | 461 kts | 146° |
| 2026-04-28 11:26 | -2.18546 | 127.27926 | 32900 ft | 461 kts | 146° |
| 2026-04-28 11:27 | -2.23973 | 127.31340 | 32623 ft | 459 kts | 146° |
| 2026-04-28 11:27 | -2.26676 | 127.33044 | 31757 ft | 461 kts | 146° |
| 2026-04-28 11:27 | -2.29393 | 127.34765 | 30855 ft | 463 kts | 146° |
| 2026-04-28 11:27 | -2.32117 | 127.36504 | 29956 ft | 466 kts | 146° |
| 2026-04-28 11:28 | -2.34853 | 127.38265 | 28875 ft | 469 kts | 145° |
| 2026-04-28 11:28 | -2.37606 | 127.40044 | 27807 ft | 472 kts | 145° |
| 2026-04-28 11:28 | -2.39432 | 127.41225 | 27096 ft | 473 kts | 145° |
| 2026-04-28 11:28 | -2.42206 | 127.43022 | 26019 ft | 476 kts | 145° |
| 2026-04-28 11:29 | -2.44984 | 127.44818 | 25182 ft | 473 kts | 146° |
| 2026-04-28 11:29 | -2.48621 | 127.47154 | 24242 ft | 466 kts | 146° |
| 2026-04-28 11:29 | -2.50454 | 127.48330 | 23785 ft | 463 kts | 146° |
| 2026-04-28 11:29 | -2.53154 | 127.50064 | 23045 ft | 459 kts | 146° |
| 2026-04-28 11:30 | -2.56682 | 127.52336 | 22078 ft | 453 kts | 146° |
| 2026-04-28 11:30 | -2.61086 | 127.55177 | 20960 ft | 445 kts | 146° |
| 2026-04-28 11:30 | -2.63678 | 127.56851 | 20319 ft | 441 kts | 146° |
| 2026-04-28 11:31 | -2.66215 | 127.58488 | 19711 ft | 438 kts | 146° |
| 2026-04-28 11:31 | -2.68762 | 127.60131 | 19111 ft | 434 kts | 146° |
| 2026-04-28 11:31 | -2.71291 | 127.61761 | 18531 ft | 430 kts | 146° |
| 2026-04-28 11:31 | -2.73799 | 127.63377 | 17933 ft | 427 kts | 146° |
| 2026-04-28 11:32 | -2.76288 | 127.64979 | 17305 ft | 424 kts | 146° |
| 2026-04-28 11:32 | -2.78758 | 127.66567 | 16713 ft | 420 kts | 146° |
| 2026-04-28 11:32 | -2.81205 | 127.68142 | 16146 ft | 417 kts | 146° |
| 2026-04-28 11:32 | -2.83631 | 127.69708 | 15601 ft | 413 kts | 146° |
| 2026-04-28 11:33 | -2.86038 | 127.71264 | 15063 ft | 410 kts | 146° |
| 2026-04-28 11:33 | -2.88428 | 127.72807 | 14519 ft | 407 kts | 146° |
| 2026-04-28 11:33 | -2.90802 | 127.74337 | 14005 ft | 404 kts | 146° |
| 2026-04-28 11:33 | -2.93157 | 127.75853 | 13449 ft | 401 kts | 147° |
| 2026-04-28 11:34 | -2.95492 | 127.77357 | 12863 ft | 398 kts | 147° |
| 2026-04-28 11:34 | -2.97806 | 127.78850 | 12275 ft | 394 kts | 147° |
| 2026-04-28 11:34 | -3.00099 | 127.80330 | 11695 ft | 390 kts | 147° |
| 2026-04-28 11:34 | -3.02371 | 127.81798 | 11103 ft | 387 kts | 147° |
| 2026-04-28 11:35 | -3.04617 | 127.83248 | 10544 ft | 382 kts | 147° |
| 2026-04-28 11:35 | -3.06767 | 127.84636 | 9988 ft | 379 kts | 147° |
| 2026-04-28 11:35 | -3.08941 | 127.86039 | 9818 ft | 364 kts | 147° |
| 2026-04-28 11:35 | -3.11023 | 127.87383 | 9688 ft | 348 kts | 147° |
| 2026-04-28 11:36 | -3.13016 | 127.88666 | 9559 ft | 334 kts | 147° |
| 2026-04-28 11:36 | -3.14928 | 127.89898 | 9428 ft | 320 kts | 147° |
| 2026-04-28 11:36 | -3.16764 | 127.91082 | 9310 ft | 308 kts | 147° |
| 2026-04-28 11:36 | -3.18535 | 127.92224 | 9174 ft | 297 kts | 147° |
| 2026-04-28 11:37 | -3.20259 | 127.93336 | 9051 ft | 293 kts | 147° |
| 2026-04-28 11:37 | -3.21943 | 127.94424 | 8930 ft | 291 kts | 147° |
| 2026-04-28 11:37 | -3.23644 | 127.95521 | 8803 ft | 291 kts | 147° |
| 2026-04-28 11:37 | -3.25344 | 127.96616 | 8682 ft | 290 kts | 147° |
| 2026-04-28 11:38 | -3.27043 | 127.97714 | 8558 ft | 290 kts | 147° |
| 2026-04-28 11:38 | -3.28736 | 127.98809 | 8436 ft | 289 kts | 147° |
| 2026-04-28 11:38 | -3.30424 | 127.99899 | 8314 ft | 289 kts | 147° |
| 2026-04-28 11:38 | -3.32118 | 128.00988 | 8085 ft | 288 kts | 147° |
| 2026-04-28 11:39 | -3.33791 | 128.02082 | 7747 ft | 286 kts | 146° |
| 2026-04-28 11:39 | -3.35437 | 128.03197 | 7407 ft | 285 kts | 146° |
| 2026-04-28 11:39 | -3.37068 | 128.04320 | 7061 ft | 284 kts | 146° |
| 2026-04-28 11:39 | -3.38692 | 128.05442 | 6711 ft | 283 kts | 146° |
| 2026-04-28 11:40 | -3.40309 | 128.06553 | 6371 ft | 282 kts | 146° |
| 2026-04-28 11:40 | -3.41923 | 128.07659 | 6005 ft | 280 kts | 146° |
| 2026-04-28 11:40 | -3.42987 | 128.08387 | 5776 ft | 279 kts | 146° |
| 2026-04-28 11:41 | -3.44145 | 128.09179 | 5564 ft | 277 kts | 146° |
| 2026-04-28 11:41 | -3.45727 | 128.10257 | 5053 ft | 274 kts | 146° |
| 2026-04-28 11:41 | -3.47297 | 128.11328 | 4830 ft | 274 kts | 146° |
| 2026-04-28 11:41 | -3.48854 | 128.12389 | 4513 ft | 273 kts | 146° |
| 2026-04-28 11:42 | -3.50421 | 128.13457 | 4182 ft | 272 kts | 146° |
| 2026-04-28 11:42 | -3.51976 | 128.14517 | 3854 ft | 270 kts | 146° |
| 2026-04-28 11:42 | -3.53522 | 128.15572 | 3521 ft | 268 kts | 146° |
| 2026-04-28 11:42 | -3.55059 | 128.16621 | 3198 ft | 266 kts | 146° |
| 2026-04-28 11:43 | -3.56579 | 128.17659 | 2928 ft | 261 kts | 146° |
| 2026-04-28 11:43 | -3.58038 | 128.18655 | 2840 ft | 246 kts | 146° |
| 2026-04-28 11:43 | -3.59464 | 128.19516 | 2741 ft | 234 kts | 158° |
| 2026-04-28 11:43 | -3.61017 | 128.19911 | 2645 ft | 230 kts | 175° |
| 2026-04-28 11:44 | -3.62616 | 128.19849 | 2540 ft | 230 kts | 185° |
| 2026-04-28 11:44 | -3.64209 | 128.19700 | 2440 ft | 229 kts | 185° |
| 2026-04-28 11:44 | -3.65774 | 128.19441 | 2334 ft | 226 kts | 200° |
| 2026-04-28 11:44 | -3.67061 | 128.18641 | 2243 ft | 214 kts | 224° |
| 2026-04-28 11:45 | -3.68059 | 128.17575 | 1947 ft | 209 kts | 228° |
| 2026-04-28 11:45 | -3.69036 | 128.16490 | 1439 ft | 211 kts | 229° |
| 2026-04-28 11:45 | -3.69672 | 128.15260 | 1287 ft | 192 kts | 262° |
| 2026-04-28 11:45 | -3.69447 | 128.14003 | 997 ft | 183 kts | 293° |
| 2026-04-28 11:46 | -3.69115 | 128.12823 | 823 ft | 169 kts | 278° |
| 2026-04-28 11:46 | -3.69068 | 128.11676 | 581 ft | 162 kts | 268° |
| 2026-04-28 11:46 | -3.69375 | 128.10644 | 453 ft | 154 kts | 237° |
| 2026-04-28 11:46 | -3.70110 | 128.09883 | 196 ft | 152 kts | 223° |
| 2026-04-28 11:47 | -3.70979 | 128.09049 | 393 ft | 191 kts | 225° |
| 2026-04-28 11:47 | -3.72014 | 128.08010 | 760 ft | 232 kts | 225° |
| 2026-04-28 11:47 | -3.73192 | 128.06882 | 1822 ft | 231 kts | 222° |
| 2026-04-28 11:47 | -3.74357 | 128.05783 | 3011 ft | 231 kts | 223° |
| 2026-04-28 11:48 | -3.75543 | 128.04683 | 3782 ft | 234 kts | 223° |
| 2026-04-28 11:48 | -3.76748 | 128.03579 | 4545 ft | 236 kts | 223° |
| 2026-04-28 11:48 | -3.77957 | 128.02480 | 5271 ft | 239 kts | 222° |
| 2026-04-28 11:48 | -3.79195 | 128.01356 | 6009 ft | 241 kts | 222° |
| 2026-04-28 11:49 | -3.80468 | 128.00211 | 6686 ft | 246 kts | 218° |
| 2026-04-28 11:49 | -3.81991 | 127.99442 | 6930 ft | 248 kts | 191° |
| 2026-04-28 11:49 | -3.83672 | 127.99467 | 7003 ft | 247 kts | 164° |
| 2026-04-28 11:49 | -3.85172 | 128.00277 | 7012 ft | 247 kts | 136° |
| 2026-04-28 11:50 | -3.86132 | 128.01684 | 7011 ft | 247 kts | 109° |
| 2026-04-28 11:50 | -3.86345 | 128.03378 | 7012 ft | 248 kts | 82° |
| 2026-04-28 11:50 | -3.85755 | 128.04987 | 7010 ft | 249 kts | 54° |
| 2026-04-28 11:50 | -3.84537 | 128.06208 | 7014 ft | 250 kts | 40° |
| 2026-04-28 11:51 | -3.83207 | 128.07333 | 7011 ft | 250 kts | 40° |
| 2026-04-28 11:51 | -3.81874 | 128.08462 | 7011 ft | 250 kts | 40° |
| 2026-04-28 11:51 | -3.80550 | 128.09587 | 7008 ft | 250 kts | 40° |
| 2026-04-28 11:51 | -3.79222 | 128.10714 | 7007 ft | 250 kts | 40° |
| 2026-04-28 11:52 | -3.77893 | 128.11842 | 7007 ft | 250 kts | 40° |
| 2026-04-28 11:52 | -3.76564 | 128.12971 | 7006 ft | 250 kts | 40° |
| 2026-04-28 11:52 | -3.75237 | 128.14100 | 7007 ft | 251 kts | 40° |
| 2026-04-28 11:52 | -3.73906 | 128.15229 | 7006 ft | 251 kts | 40° |
| 2026-04-28 11:53 | -3.72574 | 128.16349 | 7004 ft | 251 kts | 37° |
| 2026-04-28 11:53 | -3.71117 | 128.17305 | 7008 ft | 250 kts | 37° |
| 2026-04-28 11:53 | -3.69845 | 128.18487 | 7007 ft | 250 kts | 46° |
| 2026-04-28 11:53 | -3.68657 | 128.19751 | 6758 ft | 247 kts | 47° |
| 2026-04-28 11:54 | -3.67635 | 128.21122 | 6226 ft | 245 kts | 58° |
| 2026-04-28 11:54 | -3.66769 | 128.22588 | 5688 ft | 244 kts | 60° |
| 2026-04-28 11:54 | -3.65928 | 128.24059 | 5169 ft | 242 kts | 60° |
| 2026-04-28 11:54 | -3.65096 | 128.25521 | 4677 ft | 241 kts | 60° |
| 2026-04-28 11:55 | -3.64147 | 128.26882 | 4230 ft | 239 kts | 43° |
| 2026-04-28 11:55 | -3.62749 | 128.27735 | 3910 ft | 236 kts | 16° |
| 2026-04-28 11:55 | -3.61156 | 128.27876 | 3575 ft | 234 kts | 349° |
| 2026-04-28 11:55 | -3.59646 | 128.27273 | 3237 ft | 232 kts | 322° |
| 2026-04-28 11:56 | -3.58584 | 128.26080 | 2878 ft | 231 kts | 296° |
| 2026-04-28 11:56 | -3.58157 | 128.24550 | 2530 ft | 229 kts | 270° |
| 2026-04-28 11:56 | -3.58440 | 128.23031 | 2326 ft | 225 kts | 244° |
| 2026-04-28 11:56 | -3.59324 | 128.21782 | 2307 ft | 211 kts | 220° |
| 2026-04-28 11:57 | -3.60535 | 128.21053 | 2324 ft | 201 kts | 197° |
| 2026-04-28 11:57 | -3.61810 | 128.20696 | 2323 ft | 178 kts | 194° |
| 2026-04-28 11:57 | -3.62935 | 128.20391 | 2302 ft | 158 kts | 194° |
| 2026-04-28 11:57 | -3.63977 | 128.20109 | 2310 ft | 152 kts | 194° |
| 2026-04-28 11:58 | -3.64990 | 128.19827 | 2245 ft | 151 kts | 196° |
| 2026-04-28 11:58 | -3.65942 | 128.19397 | 2029 ft | 150 kts | 211° |
| 2026-04-28 11:58 | -3.66699 | 128.18675 | 1760 ft | 150 kts | 230° |
| 2026-04-28 11:58 | -3.67385 | 128.17883 | 1513 ft | 150 kts | 225° |
| 2026-04-28 11:59 | -3.68060 | 128.17089 | 1252 ft | 150 kts | 234° |
| 2026-04-28 11:59 | -3.68539 | 128.16159 | 955 ft | 151 kts | 250° |
| 2026-04-28 11:59 | -3.68736 | 128.15137 | 684 ft | 150 kts | 270° |
| 2026-04-28 11:59 | -3.68673 | 128.14109 | 447 ft | 147 kts | 278° |
| 2026-04-28 12:00 | -3.68551 | 128.13104 | 378 ft | 145 kts | 276° |
| 2026-04-28 12:00 | -3.68631 | 128.12093 | 493 ft | 148 kts | 256° |
| 2026-04-28 12:00 | -3.69006 | 128.11118 | 469 ft | 151 kts | 239° |
| 2026-04-28 12:00 | -3.69677 | 128.10311 | 260 ft | 152 kts | 226° |
| 2026-04-28 12:01 | -3.70417 | 128.09575 | 41 ft | 149 kts | 226° |
| 2026-04-28 12:01 | -3.70998 | 128.08995 | 35 ft | 76 kts | 225° |
| 2026-04-28 12:01 | -3.71214 | 128.08783 | 34 ft | 33 kts | 225° |
| 2026-04-28 12:01 | -3.71377 | 128.08620 | 35 ft | 33 kts | 224° |
| 2026-04-28 12:02 | -3.71537 | 128.08459 | 36 ft | 33 kts | 226° |
| 2026-04-28 12:02 | -3.71700 | 128.08299 | 36 ft | 33 kts | 224° |
| 2026-04-28 12:02 | -3.71762 | 128.08147 | 35 ft | 8 kts | 216° |
| 2026-04-28 12:02 | -3.71796 | 128.08191 | 35 ft | 12 kts | 75° |
| 2026-04-28 12:03 | -3.71732 | 128.08265 | 36 ft | 15 kts | 46° |
| 2026-04-28 12:03 | -3.71655 | 128.08344 | 36 ft | 18 kts | 45° |
| 2026-04-28 12:03 | -3.71563 | 128.08439 | 36 ft | 20 kts | 46° |
| 2026-04-28 12:03 | -3.71467 | 128.08539 | 36 ft | 21 kts | 43° |
| 2026-04-28 12:04 | -3.71351 | 128.08650 | 35 ft | 24 kts | 44° |
| 2026-04-28 12:04 | -3.71226 | 128.08772 | 34 ft | 26 kts | 44° |
| 2026-04-28 12:04 | -3.71085 | 128.08856 | 33 ft | 21 kts | 333° |
| 2026-04-28 12:04 | -3.70985 | 128.08768 | 35 ft | 16 kts | 346° |
| 2026-04-28 12:05 | -3.70869 | 128.08766 | 36 ft | 17 kts | 2° |
| 2026-04-28 12:05 | -3.70745 | 128.08768 | 36 ft | 12 kts | 2° |
| 2026-04-28 12:05 | -3.70696 | 128.08822 | 36 ft | 11 kts | 86° |
| 2026-04-28 12:05 | -3.70670 | 128.08856 | 36 ft | 5 kts | 2° |
| 2026-04-28 12:06 | -3.70640 | 128.08857 | 36 ft | 4 kts | 1° |
| 2026-04-28 12:06 | -3.70629 | 128.08857 | 36 ft | 0 kts | 360° |